sensor_id;sensor_type;location;lat;lon;timestamp;P1;durP1;ratioP1;P2;durP2;ratioP2
19617;SDS011;9956;51.006;13.670;2024-02-21T00:03:27;14.50;;;3.67;;
19617;SDS011;9956;51.006;13.670;2024-02-21T00:08:27;8.48;;;3.83;;
19617;SDS011;9956;51.006;13.670;2024-02-21T00:13:27;12.30;;;4.78;;
19617;SDS011;9956;51.006;13.670;2024-02-21T00:18:28;13.00;;;3.90;;
19617;SDS011;9956;51.006;13.670;2024-02-21T00:23:28;12.80;;;3.60;;
19617;SDS011;9956;51.006;13.670;2024-02-21T00:28:29;10.75;;;3.47;;
19617;SDS011;9956;51.006;13.670;2024-02-21T00:33:29;9.85;;;3.72;;
19617;SDS011;9956;51.006;13.670;2024-02-21T00:38:30;8.57;;;3.42;;
19617;SDS011;9956;51.006;13.670;2024-02-21T00:43:30;13.02;;;3.45;;
19617;SDS011;9956;51.006;13.670;2024-02-21T00:48:32;10.48;;;3.42;;
19617;SDS011;9956;51.006;13.670;2024-02-21T00:53:32;10.63;;;3.60;;
19617;SDS011;9956;51.006;13.670;2024-02-21T00:58:33;11.07;;;3.85;;
19617;SDS011;9956;51.006;13.670;2024-02-21T01:03:33;5.45;;;3.33;;
19617;SDS011;9956;51.006;13.670;2024-02-21T01:08:34;9.50;;;3.67;;
19617;SDS011;9956;51.006;13.670;2024-02-21T01:13:34;8.30;;;3.35;;
19617;SDS011;9956;51.006;13.670;2024-02-21T01:18:36;11.15;;;4.38;;
19617;SDS011;9956;51.006;13.670;2024-02-21T01:23:37;10.32;;;3.72;;
19617;SDS011;9956;51.006;13.670;2024-02-21T01:28:38;8.45;;;3.70;;
19617;SDS011;9956;51.006;13.670;2024-02-21T01:33:38;9.00;;;4.78;;
19617;SDS011;9956;51.006;13.670;2024-02-21T01:38:39;12.80;;;6.10;;
19617;SDS011;9956;51.006;13.670;2024-02-21T01:43:39;7.72;;;3.47;;
19617;SDS011;9956;51.006;13.670;2024-02-21T01:48:40;9.98;;;3.35;;
19617;SDS011;9956;51.006;13.670;2024-02-21T01:53:42;11.52;;;5.35;;
19617;SDS011;9956;51.006;13.670;2024-02-21T01:58:43;12.63;;;5.35;;
19617;SDS011;9956;51.006;13.670;2024-02-21T02:03:47;18.27;;;7.53;;
19617;SDS011;9956;51.006;13.670;2024-02-21T02:08:48;13.20;;;4.53;;
19617;SDS011;9956;51.006;13.670;2024-02-21T02:13:48;10.05;;;3.85;;
19617;SDS011;9956;51.006;13.670;2024-02-21T02:18:49;9.38;;;3.85;;
19617;SDS011;9956;51.006;13.670;2024-02-21T02:23:49;7.68;;;3.90;;
19617;SDS011;9956;51.006;13.670;2024-02-21T02:28:50;12.93;;;4.03;;
19617;SDS011;9956;51.006;13.670;2024-02-21T02:33:50;10.85;;;3.40;;
19617;SDS011;9956;51.006;13.670;2024-02-21T02:38:50;10.48;;;3.70;;
19617;SDS011;9956;51.006;13.670;2024-02-21T02:43:51;8.20;;;3.15;;
19617;SDS011;9956;51.006;13.670;2024-02-21T02:48:51;12.70;;;3.63;;
19617;SDS011;9956;51.006;13.670;2024-02-21T02:53:52;9.98;;;3.70;;
19617;SDS011;9956;51.006;13.670;2024-02-21T02:58:52;9.80;;;4.15;;
19617;SDS011;9956;51.006;13.670;2024-02-21T03:03:53;10.40;;;4.47;;
19617;SDS011;9956;51.006;13.670;2024-02-21T03:09:00;7.43;;;4.00;;
19617;SDS011;9956;51.006;13.670;2024-02-21T03:14:00;6.68;;;3.30;;
19617;SDS011;9956;51.006;13.670;2024-02-21T03:19:01;14.02;;;3.75;;
19617;SDS011;9956;51.006;13.670;2024-02-21T03:24:01;6.70;;;4.35;;
19617;SDS011;9956;51.006;13.670;2024-02-21T03:29:03;12.68;;;4.85;;
19617;SDS011;9956;51.006;13.670;2024-02-21T03:34:03;11.00;;;4.75;;
19617;SDS011;9956;51.006;13.670;2024-02-21T03:39:04;11.30;;;4.22;;
19617;SDS011;9956;51.006;13.670;2024-02-21T03:44:05;12.05;;;4.05;;
19617;SDS011;9956;51.006;13.670;2024-02-21T03:49:05;7.68;;;3.85;;
19617;SDS011;9956;51.006;13.670;2024-02-21T03:54:06;13.05;;;4.20;;
19617;SDS011;9956;51.006;13.670;2024-02-21T03:59:09;8.20;;;3.47;;
19617;SDS011;9956;51.006;13.670;2024-02-21T04:04:10;10.85;;;3.97;;
19617;SDS011;9956;51.006;13.670;2024-02-21T04:09:10;10.93;;;4.63;;
19617;SDS011;9956;51.006;13.670;2024-02-21T04:14:11;12.80;;;4.45;;
19617;SDS011;9956;51.006;13.670;2024-02-21T04:19:11;11.52;;;4.07;;
19617;SDS011;9956;51.006;13.670;2024-02-21T04:24:12;8.48;;;4.25;;
19617;SDS011;9956;51.006;13.670;2024-02-21T04:29:12;8.43;;;4.00;;
19617;SDS011;9956;51.006;13.670;2024-02-21T04:34:13;11.40;;;4.40;;
19617;SDS011;9956;51.006;13.670;2024-02-21T04:39:13;11.35;;;4.30;;
19617;SDS011;9956;51.006;13.670;2024-02-21T04:44:14;9.10;;;4.35;;
19617;SDS011;9956;51.006;13.670;2024-02-21T04:49:16;9.48;;;4.07;;
19617;SDS011;9956;51.006;13.670;2024-02-21T04:54:16;12.23;;;3.92;;
19617;SDS011;9956;51.006;13.670;2024-02-21T04:59:17;10.95;;;4.28;;
19617;SDS011;9956;51.006;13.670;2024-02-21T05:04:17;10.27;;;4.53;;
19617;SDS011;9956;51.006;13.670;2024-02-21T05:09:18;11.20;;;4.82;;
19617;SDS011;9956;51.006;13.670;2024-02-21T05:14:18;8.77;;;3.88;;
19617;SDS011;9956;51.006;13.670;2024-02-21T05:19:18;10.50;;;4.85;;
19617;SDS011;9956;51.006;13.670;2024-02-21T05:24:19;7.93;;;3.85;;
19617;SDS011;9956;51.006;13.670;2024-02-21T05:29:19;9.68;;;4.88;;
19617;SDS011;9956;51.006;13.670;2024-02-21T05:34:21;14.07;;;6.32;;
19617;SDS011;9956;51.006;13.670;2024-02-21T05:39:22;10.18;;;4.90;;
19617;SDS011;9956;51.006;13.670;2024-02-21T05:44:23;10.45;;;4.72;;
19617;SDS011;9956;51.006;13.670;2024-02-21T05:49:23;7.82;;;4.28;;
19617;SDS011;9956;51.006;13.670;2024-02-21T05:54:24;7.80;;;4.43;;
19617;SDS011;9956;51.006;13.670;2024-02-21T05:59:24;10.18;;;4.45;;
19617;SDS011;9956;51.006;13.670;2024-02-21T06:04:24;9.50;;;4.07;;
19617;SDS011;9956;51.006;13.670;2024-02-21T06:09:25;11.50;;;4.15;;
19617;SDS011;9956;51.006;13.670;2024-02-21T06:14:25;10.57;;;4.78;;
19617;SDS011;9956;51.006;13.670;2024-02-21T06:19:26;14.30;;;4.82;;
19617;SDS011;9956;51.006;13.670;2024-02-21T06:24:26;11.02;;;5.00;;
19617;SDS011;9956;51.006;13.670;2024-02-21T06:29:27;10.32;;;4.65;;
19617;SDS011;9956;51.006;13.670;2024-02-21T06:34:27;12.68;;;4.10;;
19617;SDS011;9956;51.006;13.670;2024-02-21T06:39:28;14.02;;;5.63;;
19617;SDS011;9956;51.006;13.670;2024-02-21T06:44:29;7.40;;;4.32;;
19617;SDS011;9956;51.006;13.670;2024-02-21T06:49:29;8.27;;;4.57;;
19617;SDS011;9956;51.006;13.670;2024-02-21T06:54:33;8.27;;;3.80;;
19617;SDS011;9956;51.006;13.670;2024-02-21T06:59:33;9.43;;;3.85;;
19617;SDS011;9956;51.006;13.670;2024-02-21T07:04:34;11.65;;;4.80;;
19617;SDS011;9956;51.006;13.670;2024-02-21T07:09:35;9.10;;;3.90;;
19617;SDS011;9956;51.006;13.670;2024-02-21T07:14:36;11.57;;;4.93;;
19617;SDS011;9956;51.006;13.670;2024-02-21T07:19:36;10.43;;;4.40;;
19617;SDS011;9956;51.006;13.670;2024-02-21T07:24:37;12.15;;;5.40;;
19617;SDS011;9956;51.006;13.670;2024-02-21T07:29:37;13.85;;;4.85;;
19617;SDS011;9956;51.006;13.670;2024-02-21T07:34:38;8.95;;;5.18;;
19617;SDS011;9956;51.006;13.670;2024-02-21T07:39:38;10.32;;;4.72;;
19617;SDS011;9956;51.006;13.670;2024-02-21T07:44:39;6.90;;;3.45;;
19617;SDS011;9956;51.006;13.670;2024-02-21T07:49:43;7.78;;;3.25;;
19617;SDS011;9956;51.006;13.670;2024-02-21T07:54:44;7.00;;;3.70;;
19617;SDS011;9956;51.006;13.670;2024-02-21T07:59:45;11.90;;;4.28;;
19617;SDS011;9956;51.006;13.670;2024-02-21T08:04:47;10.95;;;4.03;;
19617;SDS011;9956;51.006;13.670;2024-02-21T08:09:47;10.65;;;4.05;;
19617;SDS011;9956;51.006;13.670;2024-02-21T08:14:48;9.57;;;4.13;;
19617;SDS011;9956;51.006;13.670;2024-02-21T08:19:48;10.23;;;4.10;;
19617;SDS011;9956;51.006;13.670;2024-02-21T08:24:49;9.93;;;4.72;;
19617;SDS011;9956;51.006;13.670;2024-02-21T08:29:50;9.15;;;3.90;;
19617;SDS011;9956;51.006;13.670;2024-02-21T08:34:50;12.48;;;3.80;;
19617;SDS011;9956;51.006;13.670;2024-02-21T08:39:51;9.77;;;4.30;;
19617;SDS011;9956;51.006;13.670;2024-02-21T08:44:51;7.50;;;3.92;;
19617;SDS011;9956;51.006;13.670;2024-02-21T08:49:52;9.50;;;3.92;;
19617;SDS011;9956;51.006;13.670;2024-02-21T08:54:52;10.48;;;3.97;;
19617;SDS011;9956;51.006;13.670;2024-02-21T08:59:53;11.13;;;4.25;;
19617;SDS011;9956;51.006;13.670;2024-02-21T09:04:54;6.07;;;3.72;;
19617;SDS011;9956;51.006;13.670;2024-02-21T09:09:54;8.35;;;4.30;;
19617;SDS011;9956;51.006;13.670;2024-02-21T09:14:55;12.43;;;5.00;;
19617;SDS011;9956;51.006;13.670;2024-02-21T09:19:55;9.02;;;4.00;;
19617;SDS011;9956;51.006;13.670;2024-02-21T09:24:59;10.35;;;4.65;;
19617;SDS011;9956;51.006;13.670;2024-02-21T09:29:59;7.50;;;3.90;;
19617;SDS011;9956;51.006;13.670;2024-02-21T09:35:00;9.25;;;4.18;;
19617;SDS011;9956;51.006;13.670;2024-02-21T09:40:00;14.30;;;4.38;;
19617;SDS011;9956;51.006;13.670;2024-02-21T09:45:01;8.27;;;3.92;;
19617;SDS011;9956;51.006;13.670;2024-02-21T09:50:04;7.80;;;3.90;;
19617;SDS011;9956;51.006;13.670;2024-02-21T09:55:05;11.48;;;4.57;;
19617;SDS011;9956;51.006;13.670;2024-02-21T10:00:08;12.00;;;3.90;;
19617;SDS011;9956;51.006;13.670;2024-02-21T10:05:12;9.02;;;4.53;;
19617;SDS011;9956;51.006;13.670;2024-02-21T10:10:13;9.02;;;3.88;;
19617;SDS011;9956;51.006;13.670;2024-02-21T10:15:19;9.25;;;3.80;;
19617;SDS011;9956;51.006;13.670;2024-02-21T10:20:20;9.75;;;4.68;;
19617;SDS011;9956;51.006;13.670;2024-02-21T10:25:20;8.30;;;3.78;;
19617;SDS011;9956;51.006;13.670;2024-02-21T10:30:21;8.63;;;4.32;;
19617;SDS011;9956;51.006;13.670;2024-02-21T10:35:36;7.55;;;3.72;;
19617;SDS011;9956;51.006;13.670;2024-02-21T10:40:37;9.43;;;4.93;;
19617;SDS011;9956;51.006;13.670;2024-02-21T10:45:37;6.65;;;3.35;;
19617;SDS011;9956;51.006;13.670;2024-02-21T10:51:00;7.45;;;3.42;;
19617;SDS011;9956;51.006;13.670;2024-02-21T10:56:33;5.00;;;3.25;;
19617;SDS011;9956;51.006;13.670;2024-02-21T11:01:37;8.63;;;4.70;;
19617;SDS011;9956;51.006;13.670;2024-02-21T11:06:40;8.68;;;3.90;;
19617;SDS011;9956;51.006;13.670;2024-02-21T11:11:42;9.70;;;3.72;;
19617;SDS011;9956;51.006;13.670;2024-02-21T11:22:44;9.43;;;4.53;;
19617;SDS011;9956;51.006;13.670;2024-02-21T11:27:45;5.32;;;3.55;;
19617;SDS011;9956;51.006;13.670;2024-02-21T11:32:46;7.60;;;3.70;;
19617;SDS011;9956;51.006;13.670;2024-02-21T11:37:47;6.00;;;3.33;;
19617;SDS011;9956;51.006;13.670;2024-02-21T11:42:47;7.93;;;3.63;;
19617;SDS011;9956;51.006;13.670;2024-02-21T11:47:48;10.13;;;3.58;;
19617;SDS011;9956;51.006;13.670;2024-02-21T11:52:49;8.18;;;3.70;;
19617;SDS011;9956;51.006;13.670;2024-02-21T11:57:49;6.63;;;3.72;;
19617;SDS011;9956;51.006;13.670;2024-02-21T12:02:50;7.05;;;2.97;;
19617;SDS011;9956;51.006;13.670;2024-02-21T12:07:51;3.97;;;2.70;;
19617;SDS011;9956;51.006;13.670;2024-02-21T12:12:52;5.68;;;2.78;;
19617;SDS011;9956;51.006;13.670;2024-02-21T12:17:55;5.05;;;2.65;;
19617;SDS011;9956;51.006;13.670;2024-02-21T12:23:02;7.25;;;2.63;;
19617;SDS011;9956;51.006;13.670;2024-02-21T12:28:04;5.30;;;2.72;;
19617;SDS011;9956;51.006;13.670;2024-02-21T12:33:04;6.43;;;2.58;;
19617;SDS011;9956;51.006;13.670;2024-02-21T12:38:05;7.32;;;3.30;;
19617;SDS011;9956;51.006;13.670;2024-02-21T12:43:05;5.40;;;2.30;;
19617;SDS011;9956;51.006;13.670;2024-02-21T12:48:06;6.95;;;2.92;;
19617;SDS011;9956;51.006;13.670;2024-02-21T12:53:07;6.40;;;2.92;;
19617;SDS011;9956;51.006;13.670;2024-02-21T12:58:08;5.70;;;2.95;;
19617;SDS011;9956;51.006;13.670;2024-02-21T13:03:09;6.25;;;2.47;;
19617;SDS011;9956;51.006;13.670;2024-02-21T13:08:09;6.68;;;2.28;;
19617;SDS011;9956;51.006;13.670;2024-02-21T13:13:11;5.55;;;2.75;;
19617;SDS011;9956;51.006;13.670;2024-02-21T13:18:12;4.13;;;2.20;;
19617;SDS011;9956;51.006;13.670;2024-02-21T13:23:12;6.10;;;2.92;;
19617;SDS011;9956;51.006;13.670;2024-02-21T13:28:13;8.93;;;3.72;;
19617;SDS011;9956;51.006;13.670;2024-02-21T13:33:15;8.32;;;3.60;;
19617;SDS011;9956;51.006;13.670;2024-02-21T13:38:16;8.20;;;3.10;;
19617;SDS011;9956;51.006;13.670;2024-02-21T13:43:18;6.40;;;2.85;;
19617;SDS011;9956;51.006;13.670;2024-02-21T13:48:18;9.48;;;2.75;;
19617;SDS011;9956;51.006;13.670;2024-02-21T13:53:19;6.07;;;2.70;;
19617;SDS011;9956;51.006;13.670;2024-02-21T13:58:21;5.25;;;2.22;;
19617;SDS011;9956;51.006;13.670;2024-02-21T14:03:22;4.90;;;2.05;;
19617;SDS011;9956;51.006;13.670;2024-02-21T14:08:22;6.82;;;2.17;;
19617;SDS011;9956;51.006;13.670;2024-02-21T14:13:24;4.38;;;2.28;;
19617;SDS011;9956;51.006;13.670;2024-02-21T14:18:24;6.10;;;2.10;;
19617;SDS011;9956;51.006;13.670;2024-02-21T14:23:25;4.65;;;1.80;;
19617;SDS011;9956;51.006;13.670;2024-02-21T14:28:25;6.13;;;1.95;;
19617;SDS011;9956;51.006;13.670;2024-02-21T14:33:26;3.65;;;1.80;;
19617;SDS011;9956;51.006;13.670;2024-02-21T14:38:27;6.55;;;1.92;;
19617;SDS011;9956;51.006;13.670;2024-02-21T14:43:28;4.93;;;1.70;;
19617;SDS011;9956;51.006;13.670;2024-02-21T14:48:28;6.18;;;1.90;;
19617;SDS011;9956;51.006;13.670;2024-02-21T14:53:29;4.15;;;1.80;;
19617;SDS011;9956;51.006;13.670;2024-02-21T14:58:30;6.80;;;2.42;;
19617;SDS011;9956;51.006;13.670;2024-02-21T15:03:31;3.55;;;1.70;;
19617;SDS011;9956;51.006;13.670;2024-02-21T15:08:32;4.63;;;1.95;;
19617;SDS011;9956;51.006;13.670;2024-02-21T15:13:32;4.13;;;1.90;;
19617;SDS011;9956;51.006;13.670;2024-02-21T15:18:33;5.90;;;2.88;;
19617;SDS011;9956;51.006;13.670;2024-02-21T15:23:35;3.97;;;2.10;;
19617;SDS011;9956;51.006;13.670;2024-02-21T15:28:36;2.75;;;1.75;;
19617;SDS011;9956;51.006;13.670;2024-02-21T15:33:36;4.68;;;2.28;;
19617;SDS011;9956;51.006;13.670;2024-02-21T15:38:37;5.40;;;4.35;;
19617;SDS011;9956;51.006;13.670;2024-02-21T15:43:37;5.03;;;3.35;;
19617;SDS011;9956;51.006;13.670;2024-02-21T15:48:38;4.55;;;2.45;;
19617;SDS011;9956;51.006;13.670;2024-02-21T15:53:39;7.63;;;4.40;;
19617;SDS011;9956;51.006;13.670;2024-02-21T15:58:45;6.32;;;3.28;;
19617;SDS011;9956;51.006;13.670;2024-02-21T16:03:46;5.78;;;2.40;;
19617;SDS011;9956;51.006;13.670;2024-02-21T16:08:46;4.88;;;2.65;;
19617;SDS011;9956;51.006;13.670;2024-02-21T16:13:50;6.88;;;3.85;;
19617;SDS011;9956;51.006;13.670;2024-02-21T16:18:51;4.20;;;2.65;;
19617;SDS011;9956;51.006;13.670;2024-02-21T16:23:53;5.40;;;2.90;;
19617;SDS011;9956;51.006;13.670;2024-02-21T16:28:53;4.90;;;3.33;;
19617;SDS011;9956;51.006;13.670;2024-02-21T16:33:54;5.75;;;2.97;;
19617;SDS011;9956;51.006;13.670;2024-02-21T16:38:55;5.32;;;2.58;;
19617;SDS011;9956;51.006;13.670;2024-02-21T16:43:57;5.78;;;2.20;;
19617;SDS011;9956;51.006;13.670;2024-02-21T16:48:58;6.88;;;3.42;;
19617;SDS011;9956;51.006;13.670;2024-02-21T16:53:59;6.25;;;3.17;;
19617;SDS011;9956;51.006;13.670;2024-02-21T16:59:06;5.20;;;2.28;;
19617;SDS011;9956;51.006;13.670;2024-02-21T17:04:07;4.15;;;2.55;;
19617;SDS011;9956;51.006;13.670;2024-02-21T17:09:08;8.10;;;7.28;;
19617;SDS011;9956;51.006;13.670;2024-02-21T17:14:10;28.15;;;18.85;;
19617;SDS011;9956;51.006;13.670;2024-02-21T17:19:10;58.40;;;32.53;;
19617;SDS011;9956;51.006;13.670;2024-02-21T17:24:11;22.98;;;17.83;;
19617;SDS011;9956;51.006;13.670;2024-02-21T17:29:12;29.23;;;17.35;;
19617;SDS011;9956;51.006;13.670;2024-02-21T17:34:13;38.55;;;22.90;;
19617;SDS011;9956;51.006;13.670;2024-02-21T17:39:20;47.30;;;26.55;;
19617;SDS011;9956;51.006;13.670;2024-02-21T17:44:20;30.27;;;19.40;;
19617;SDS011;9956;51.006;13.670;2024-02-21T17:49:22;25.65;;;16.25;;
19617;SDS011;9956;51.006;13.670;2024-02-21T17:54:31;17.50;;;11.30;;
19617;SDS011;9956;51.006;13.670;2024-02-21T17:59:32;16.65;;;10.88;;
19617;SDS011;9956;51.006;13.670;2024-02-21T18:04:33;14.13;;;10.02;;
19617;SDS011;9956;51.006;13.670;2024-02-21T18:09:34;12.82;;;9.23;;
19617;SDS011;9956;51.006;13.670;2024-02-21T18:14:35;13.85;;;9.95;;
19617;SDS011;9956;51.006;13.670;2024-02-21T18:19:36;17.50;;;12.82;;
19617;SDS011;9956;51.006;13.670;2024-02-21T18:24:36;20.52;;;12.90;;
19617;SDS011;9956;51.006;13.670;2024-02-21T18:29:37;13.73;;;9.30;;
19617;SDS011;9956;51.006;13.670;2024-02-21T18:34:37;17.70;;;11.52;;
19617;SDS011;9956;51.006;13.670;2024-02-21T18:39:38;15.82;;;10.00;;
19617;SDS011;9956;51.006;13.670;2024-02-21T18:44:38;16.05;;;12.10;;
19617;SDS011;9956;51.006;13.670;2024-02-21T18:55:13;20.42;;;12.70;;
19617;SDS011;9956;51.006;13.670;2024-02-21T19:00:16;16.20;;;11.23;;
19617;SDS011;9956;51.006;13.670;2024-02-21T19:05:22;17.63;;;15.60;;
19617;SDS011;9956;51.006;13.670;2024-02-21T19:10:23;21.55;;;16.77;;
19617;SDS011;9956;51.006;13.670;2024-02-21T19:15:23;18.75;;;13.98;;
19617;SDS011;9956;51.006;13.670;2024-02-21T19:20:24;13.20;;;10.27;;
19617;SDS011;9956;51.006;13.670;2024-02-21T19:25:24;17.63;;;14.32;;
19617;SDS011;9956;51.006;13.670;2024-02-21T19:30:34;17.55;;;13.35;;
19617;SDS011;9956;51.006;13.670;2024-02-21T19:35:35;28.33;;;19.10;;
19617;SDS011;9956;51.006;13.670;2024-02-21T19:40:36;26.40;;;17.10;;
19617;SDS011;9956;51.006;13.670;2024-02-21T19:45:36;18.58;;;11.48;;
19617;SDS011;9956;51.006;13.670;2024-02-21T19:50:37;12.98;;;11.60;;
19617;SDS011;9956;51.006;13.670;2024-02-21T19:55:38;27.55;;;25.08;;
19617;SDS011;9956;51.006;13.670;2024-02-21T20:00:39;28.13;;;25.13;;
19617;SDS011;9956;51.006;13.670;2024-02-21T20:05:40;13.00;;;9.38;;
19617;SDS011;9956;51.006;13.670;2024-02-21T20:10:42;27.90;;;25.05;;
19617;SDS011;9956;51.006;13.670;2024-02-21T20:15:42;13.50;;;10.32;;
19617;SDS011;9956;51.006;13.670;2024-02-21T20:20:43;13.45;;;9.68;;
19617;SDS011;9956;51.006;13.670;2024-02-21T20:25:44;9.65;;;7.43;;
19617;SDS011;9956;51.006;13.670;2024-02-21T20:30:45;13.85;;;11.32;;
19617;SDS011;9956;51.006;13.670;2024-02-21T20:35:45;12.75;;;10.38;;
19617;SDS011;9956;51.006;13.670;2024-02-21T20:40:46;11.52;;;8.35;;
19617;SDS011;9956;51.006;13.670;2024-02-21T20:45:47;6.88;;;6.18;;
19617;SDS011;9956;51.006;13.670;2024-02-21T20:50:47;4.63;;;3.28;;
19617;SDS011;9956;51.006;13.670;2024-02-21T20:55:48;2.97;;;2.65;;
19617;SDS011;9956;51.006;13.670;2024-02-21T21:00:48;3.25;;;2.22;;
19617;SDS011;9956;51.006;13.670;2024-02-21T21:05:49;2.80;;;2.30;;
19617;SDS011;9956;51.006;13.670;2024-02-21T21:10:49;3.35;;;2.22;;
19617;SDS011;9956;51.006;13.670;2024-02-21T21:15:50;3.38;;;2.50;;
19617;SDS011;9956;51.006;13.670;2024-02-21T21:20:50;5.15;;;2.20;;
19617;SDS011;9956;51.006;13.670;2024-02-21T21:25:51;2.17;;;1.80;;
19617;SDS011;9956;51.006;13.670;2024-02-21T21:30:52;6.18;;;2.15;;
19617;SDS011;9956;51.006;13.670;2024-02-21T21:35:53;3.60;;;1.40;;
19617;SDS011;9956;51.006;13.670;2024-02-21T21:40:53;3.63;;;2.13;;
19617;SDS011;9956;51.006;13.670;2024-02-21T21:45:54;4.72;;;2.97;;
19617;SDS011;9956;51.006;13.670;2024-02-21T21:50:54;9.15;;;5.70;;
19617;SDS011;9956;51.006;13.670;2024-02-21T21:55:55;5.35;;;4.85;;
19617;SDS011;9956;51.006;13.670;2024-02-21T22:00:56;4.78;;;3.58;;
19617;SDS011;9956;51.006;13.670;2024-02-21T22:05:56;4.93;;;2.78;;
19617;SDS011;9956;51.006;13.670;2024-02-21T22:10:57;4.03;;;2.63;;
19617;SDS011;9956;51.006;13.670;2024-02-21T22:15:57;5.28;;;2.25;;
19617;SDS011;9956;51.006;13.670;2024-02-21T22:20:58;3.88;;;2.20;;
19617;SDS011;9956;51.006;13.670;2024-02-21T22:25:59;5.03;;;2.50;;
19617;SDS011;9956;51.006;13.670;2024-02-21T22:31:00;3.58;;;2.05;;
19617;SDS011;9956;51.006;13.670;2024-02-21T22:36:00;3.70;;;1.70;;
19617;SDS011;9956;51.006;13.670;2024-02-21T22:41:01;2.35;;;1.27;;
19617;SDS011;9956;51.006;13.670;2024-02-21T22:46:01;2.88;;;0.90;;
19617;SDS011;9956;51.006;13.670;2024-02-21T22:51:03;2.72;;;1.08;;
19617;SDS011;9956;51.006;13.670;2024-02-21T22:56:03;1.52;;;0.85;;
19617;SDS011;9956;51.006;13.670;2024-02-21T23:01:08;2.63;;;1.25;;
19617;SDS011;9956;51.006;13.670;2024-02-21T23:06:11;1.75;;;0.95;;
19617;SDS011;9956;51.006;13.670;2024-02-21T23:11:11;1.48;;;0.68;;
19617;SDS011;9956;51.006;13.670;2024-02-21T23:16:14;2.38;;;1.05;;
19617;SDS011;9956;51.006;13.670;2024-02-21T23:21:15;1.33;;;0.95;;
19617;SDS011;9956;51.006;13.670;2024-02-21T23:26:15;2.17;;;0.95;;
19617;SDS011;9956;51.006;13.670;2024-02-21T23:31:16;2.28;;;0.90;;
19617;SDS011;9956;51.006;13.670;2024-02-21T23:36:16;1.10;;;0.75;;
19617;SDS011;9956;51.006;13.670;2024-02-21T23:41:16;1.48;;;0.60;;
19617;SDS011;9956;51.006;13.670;2024-02-21T23:46:17;1.00;;;0.65;;
19617;SDS011;9956;51.006;13.670;2024-02-21T23:51:19;1.88;;;0.65;;
19617;SDS011;9956;51.006;13.670;2024-02-21T23:56:20;0.98;;;0.50;;
